sensor_id;sensor_type;location;lat;lon;timestamp;P1;durP1;ratioP1;P2;durP2;ratioP2
20527;SDS011;23612;50.894;10.700;2023-02-28T00:00:08;13.83;;;8.60;;
20527;SDS011;23612;50.894;10.700;2023-02-28T00:02:36;12.97;;;7.90;;
20527;SDS011;23612;50.894;10.700;2023-02-28T00:05:02;12.83;;;7.67;;
20527;SDS011;23612;50.894;10.700;2023-02-28T00:07:28;12.70;;;8.07;;
20527;SDS011;23612;50.894;10.700;2023-02-28T00:09:54;11.30;;;7.10;;
20527;SDS011;23612;50.894;10.700;2023-02-28T00:12:20;11.30;;;8.03;;
20527;SDS011;23612;50.894;10.700;2023-02-28T00:14:46;15.53;;;7.80;;
20527;SDS011;23612;50.894;10.700;2023-02-28T00:17:12;11.70;;;7.60;;
20527;SDS011;23612;50.894;10.700;2023-02-28T00:19:38;11.67;;;7.77;;
20527;SDS011;23612;50.894;10.700;2023-02-28T00:22:04;11.30;;;7.90;;
20527;SDS011;23612;50.894;10.700;2023-02-28T00:24:30;12.40;;;7.70;;
20527;SDS011;23612;50.894;10.700;2023-02-28T00:26:56;14.03;;;7.40;;
20527;SDS011;23612;50.894;10.700;2023-02-28T00:29:22;10.93;;;7.43;;
20527;SDS011;23612;50.894;10.700;2023-02-28T00:31:48;11.10;;;7.80;;
20527;SDS011;23612;50.894;10.700;2023-02-28T00:34:14;14.73;;;7.67;;
20527;SDS011;23612;50.894;10.700;2023-02-28T00:36:40;13.17;;;7.83;;
20527;SDS011;23612;50.894;10.700;2023-02-28T00:39:10;13.03;;;7.87;;
20527;SDS011;23612;50.894;10.700;2023-02-28T00:41:36;10.87;;;7.53;;
20527;SDS011;23612;50.894;10.700;2023-02-28T00:44:02;13.03;;;7.20;;
20527;SDS011;23612;50.894;10.700;2023-02-28T00:46:28;10.13;;;7.20;;
20527;SDS011;23612;50.894;10.700;2023-02-28T00:48:53;11.70;;;7.00;;
20527;SDS011;23612;50.894;10.700;2023-02-28T00:51:19;13.83;;;7.70;;
20527;SDS011;23612;50.894;10.700;2023-02-28T00:53:45;12.57;;;7.00;;
20527;SDS011;23612;50.894;10.700;2023-02-28T00:56:11;11.57;;;7.80;;
20527;SDS011;23612;50.894;10.700;2023-02-28T00:58:38;12.23;;;7.90;;
20527;SDS011;23612;50.894;10.700;2023-02-28T01:01:04;13.10;;;8.00;;
20527;SDS011;23612;50.894;10.700;2023-02-28T01:03:30;11.20;;;7.33;;
20527;SDS011;23612;50.894;10.700;2023-02-28T01:05:56;10.67;;;7.50;;
20527;SDS011;23612;50.894;10.700;2023-02-28T01:08:22;12.07;;;7.50;;
20527;SDS011;23612;50.894;10.700;2023-02-28T01:10:48;10.33;;;7.30;;
20527;SDS011;23612;50.894;10.700;2023-02-28T01:13:14;12.77;;;7.77;;
20527;SDS011;23612;50.894;10.700;2023-02-28T01:15:41;10.90;;;7.03;;
20527;SDS011;23612;50.894;10.700;2023-02-28T01:18:07;15.30;;;7.80;;
20527;SDS011;23612;50.894;10.700;2023-02-28T01:20:35;13.33;;;7.73;;
20527;SDS011;23612;50.894;10.700;2023-02-28T01:23:02;16.27;;;7.40;;
20527;SDS011;23612;50.894;10.700;2023-02-28T01:25:27;15.53;;;7.70;;
20527;SDS011;23612;50.894;10.700;2023-02-28T01:27:53;11.23;;;7.00;;
20527;SDS011;23612;50.894;10.700;2023-02-28T01:30:19;9.47;;;7.33;;
20527;SDS011;23612;50.894;10.700;2023-02-28T01:32:45;14.33;;;7.60;;
20527;SDS011;23612;50.894;10.700;2023-02-28T01:35:11;11.30;;;8.10;;
20527;SDS011;23612;50.894;10.700;2023-02-28T01:37:37;12.83;;;7.33;;
20527;SDS011;23612;50.894;10.700;2023-02-28T01:40:03;10.00;;;7.00;;
20527;SDS011;23612;50.894;10.700;2023-02-28T01:42:29;12.13;;;7.70;;
20527;SDS011;23612;50.894;10.700;2023-02-28T01:47:21;10.20;;;7.53;;
20527;SDS011;23612;50.894;10.700;2023-02-28T01:49:48;10.80;;;7.33;;
20527;SDS011;23612;50.894;10.700;2023-02-28T01:52:14;10.17;;;6.87;;
20527;SDS011;23612;50.894;10.700;2023-02-28T01:54:42;14.33;;;7.50;;
20527;SDS011;23612;50.894;10.700;2023-02-28T01:57:11;10.83;;;7.30;;
20527;SDS011;23612;50.894;10.700;2023-02-28T02:02:09;11.93;;;6.77;;
20527;SDS011;23612;50.894;10.700;2023-02-28T02:04:39;10.40;;;7.13;;
20527;SDS011;23612;50.894;10.700;2023-02-28T02:07:07;11.67;;;7.27;;
20527;SDS011;23612;50.894;10.700;2023-02-28T02:09:33;10.07;;;6.80;;
20527;SDS011;23612;50.894;10.700;2023-02-28T02:11:59;11.20;;;7.43;;
20527;SDS011;23612;50.894;10.700;2023-02-28T02:24:47;10.47;;;7.13;;
20527;SDS011;23612;50.894;10.700;2023-02-28T02:32:47;11.83;;;7.97;;
20527;SDS011;23612;50.894;10.700;2023-02-28T02:35:26;13.57;;;7.57;;
20527;SDS011;23612;50.894;10.700;2023-02-28T02:40:27;14.27;;;7.40;;
20527;SDS011;23612;50.894;10.700;2023-02-28T02:43:15;11.70;;;7.43;;
20527;SDS011;23612;50.894;10.700;2023-02-28T02:48:09;12.60;;;7.97;;
20527;SDS011;23612;50.894;10.700;2023-02-28T02:50:37;13.97;;;9.00;;
20527;SDS011;23612;50.894;10.700;2023-02-28T02:53:04;9.50;;;6.70;;
20527;SDS011;23612;50.894;10.700;2023-02-28T02:55:32;9.77;;;7.00;;
20527;SDS011;23612;50.894;10.700;2023-02-28T02:57:59;11.93;;;7.53;;
20527;SDS011;23612;50.894;10.700;2023-02-28T03:00:35;13.73;;;8.03;;
20527;SDS011;23612;50.894;10.700;2023-02-28T03:03:03;10.80;;;7.37;;
20527;SDS011;23612;50.894;10.700;2023-02-28T03:05:31;13.80;;;7.23;;
20527;SDS011;23612;50.894;10.700;2023-02-28T03:07:59;12.17;;;7.47;;
20527;SDS011;23612;50.894;10.700;2023-02-28T03:10:28;15.20;;;7.23;;
20527;SDS011;23612;50.894;10.700;2023-02-28T03:12:58;12.07;;;6.60;;
20527;SDS011;23612;50.894;10.700;2023-02-28T03:15:26;10.67;;;6.73;;
20527;SDS011;23612;50.894;10.700;2023-02-28T03:18:10;13.83;;;6.87;;
20527;SDS011;23612;50.894;10.700;2023-02-28T03:20:45;12.03;;;7.07;;
20527;SDS011;23612;50.894;10.700;2023-02-28T03:23:19;8.40;;;6.20;;
20527;SDS011;23612;50.894;10.700;2023-02-28T03:25:52;12.43;;;7.17;;
20527;SDS011;23612;50.894;10.700;2023-02-28T03:28:39;11.60;;;6.87;;
20527;SDS011;23612;50.894;10.700;2023-02-28T03:31:08;11.93;;;7.40;;
20527;SDS011;23612;50.894;10.700;2023-02-28T03:33:37;10.47;;;6.70;;
20527;SDS011;23612;50.894;10.700;2023-02-28T03:36:06;9.57;;;6.90;;
20527;SDS011;23612;50.894;10.700;2023-02-28T03:38:41;14.23;;;7.27;;
20527;SDS011;23612;50.894;10.700;2023-02-28T03:41:16;11.60;;;7.30;;
20527;SDS011;23612;50.894;10.700;2023-02-28T03:43:54;12.20;;;7.60;;
20527;SDS011;23612;50.894;10.700;2023-02-28T03:46:21;11.80;;;7.83;;
20527;SDS011;23612;50.894;10.700;2023-02-28T03:48:51;12.20;;;7.43;;
20527;SDS011;23612;50.894;10.700;2023-02-28T03:51:19;15.97;;;8.33;;
20527;SDS011;23612;50.894;10.700;2023-02-28T03:53:58;12.67;;;7.80;;
20527;SDS011;23612;50.894;10.700;2023-02-28T03:56:32;11.93;;;7.73;;
20527;SDS011;23612;50.894;10.700;2023-02-28T04:01:38;13.37;;;7.43;;
20527;SDS011;23612;50.894;10.700;2023-02-28T04:04:06;14.10;;;8.17;;
20527;SDS011;23612;50.894;10.700;2023-02-28T04:06:33;10.53;;;7.27;;
20527;SDS011;23612;50.894;10.700;2023-02-28T04:08:59;15.93;;;7.63;;
20527;SDS011;23612;50.894;10.700;2023-02-28T04:11:39;12.40;;;7.17;;
20527;SDS011;23612;50.894;10.700;2023-02-28T04:14:06;14.03;;;7.93;;
20527;SDS011;23612;50.894;10.700;2023-02-28T04:16:33;13.87;;;7.50;;
20527;SDS011;23612;50.894;10.700;2023-02-28T04:18:59;15.30;;;7.70;;
20527;SDS011;23612;50.894;10.700;2023-02-28T04:21:29;12.23;;;7.73;;
20527;SDS011;23612;50.894;10.700;2023-02-28T04:23:55;11.60;;;6.70;;
20527;SDS011;23612;50.894;10.700;2023-02-28T04:26:32;11.80;;;6.90;;
20527;SDS011;23612;50.894;10.700;2023-02-28T04:28:59;14.43;;;8.40;;
20527;SDS011;23612;50.894;10.700;2023-02-28T04:31:25;12.90;;;8.47;;
20527;SDS011;23612;50.894;10.700;2023-02-28T04:33:51;12.43;;;7.97;;
20527;SDS011;23612;50.894;10.700;2023-02-28T04:36:17;15.77;;;7.87;;
20527;SDS011;23612;50.894;10.700;2023-02-28T04:38:43;11.97;;;6.80;;
20527;SDS011;23612;50.894;10.700;2023-02-28T04:41:10;10.40;;;6.50;;
20527;SDS011;23612;50.894;10.700;2023-02-28T04:43:36;15.27;;;7.77;;
20527;SDS011;23612;50.894;10.700;2023-02-28T04:46:03;12.60;;;7.50;;
20527;SDS011;23612;50.894;10.700;2023-02-28T04:48:29;10.37;;;6.77;;
20527;SDS011;23612;50.894;10.700;2023-02-28T04:50:59;10.70;;;6.87;;
20527;SDS011;23612;50.894;10.700;2023-02-28T04:53:25;13.63;;;7.10;;
20527;SDS011;23612;50.894;10.700;2023-02-28T04:55:52;11.70;;;7.13;;
20527;SDS011;23612;50.894;10.700;2023-02-28T04:58:18;13.63;;;6.63;;
20527;SDS011;23612;50.894;10.700;2023-02-28T05:00:44;11.73;;;6.27;;
20527;SDS011;23612;50.894;10.700;2023-02-28T05:03:10;15.73;;;6.70;;
20527;SDS011;23612;50.894;10.700;2023-02-28T05:05:36;9.57;;;6.27;;
20527;SDS011;23612;50.894;10.700;2023-02-28T05:08:02;10.77;;;6.50;;
20527;SDS011;23612;50.894;10.700;2023-02-28T05:10:30;13.07;;;6.80;;
20527;SDS011;23612;50.894;10.700;2023-02-28T05:12:56;10.47;;;6.20;;
20527;SDS011;23612;50.894;10.700;2023-02-28T05:15:22;10.73;;;6.63;;
20527;SDS011;23612;50.894;10.700;2023-02-28T05:17:48;10.73;;;6.47;;
20527;SDS011;23612;50.894;10.700;2023-02-28T05:20:14;9.03;;;6.23;;
20527;SDS011;23612;50.894;10.700;2023-02-28T05:22:40;11.73;;;6.77;;
20527;SDS011;23612;50.894;10.700;2023-02-28T05:25:06;10.90;;;7.43;;
20527;SDS011;23612;50.894;10.700;2023-02-28T05:27:32;9.70;;;6.77;;
20527;SDS011;23612;50.894;10.700;2023-02-28T05:29:58;9.17;;;6.33;;
20527;SDS011;23612;50.894;10.700;2023-02-28T05:32:27;14.43;;;6.83;;
20527;SDS011;23612;50.894;10.700;2023-02-28T05:34:53;10.57;;;6.60;;
20527;SDS011;23612;50.894;10.700;2023-02-28T05:37:19;10.97;;;6.57;;
20527;SDS011;23612;50.894;10.700;2023-02-28T05:39:45;10.80;;;7.03;;
20527;SDS011;23612;50.894;10.700;2023-02-28T05:42:11;12.97;;;7.73;;
20527;SDS011;23612;50.894;10.700;2023-02-28T05:44:37;13.20;;;7.10;;
20527;SDS011;23612;50.894;10.700;2023-02-28T05:47:03;11.70;;;7.87;;
20527;SDS011;23612;50.894;10.700;2023-02-28T05:49:29;14.30;;;7.40;;
20527;SDS011;23612;50.894;10.700;2023-02-28T05:51:55;10.47;;;6.70;;
20527;SDS011;23612;50.894;10.700;2023-02-28T05:54:21;11.23;;;6.47;;
20527;SDS011;23612;50.894;10.700;2023-02-28T05:56:47;11.70;;;6.70;;
20527;SDS011;23612;50.894;10.700;2023-02-28T05:59:13;12.20;;;6.70;;
20527;SDS011;23612;50.894;10.700;2023-02-28T06:01:43;10.03;;;6.77;;
20527;SDS011;23612;50.894;10.700;2023-02-28T06:04:17;11.47;;;6.63;;
20527;SDS011;23612;50.894;10.700;2023-02-28T06:06:46;10.57;;;6.53;;
20527;SDS011;23612;50.894;10.700;2023-02-28T06:09:13;14.63;;;7.30;;
20527;SDS011;23612;50.894;10.700;2023-02-28T06:11:39;10.87;;;6.60;;
20527;SDS011;23612;50.894;10.700;2023-02-28T06:14:05;13.63;;;6.67;;
20527;SDS011;23612;50.894;10.700;2023-02-28T06:16:32;10.70;;;6.57;;
20527;SDS011;23612;50.894;10.700;2023-02-28T06:18:59;12.87;;;6.73;;
20527;SDS011;23612;50.894;10.700;2023-02-28T06:21:26;10.20;;;6.33;;
20527;SDS011;23612;50.894;10.700;2023-02-28T06:23:52;13.87;;;6.73;;
20527;SDS011;23612;50.894;10.700;2023-02-28T06:26:18;10.77;;;6.67;;
20527;SDS011;23612;50.894;10.700;2023-02-28T06:28:44;9.70;;;6.80;;
20527;SDS011;23612;50.894;10.700;2023-02-28T06:31:11;13.40;;;7.50;;
20527;SDS011;23612;50.894;10.700;2023-02-28T06:33:38;12.50;;;7.17;;
20527;SDS011;23612;50.894;10.700;2023-02-28T06:36:04;11.03;;;6.57;;
20527;SDS011;23612;50.894;10.700;2023-02-28T06:38:30;11.33;;;7.20;;
20527;SDS011;23612;50.894;10.700;2023-02-28T06:40:58;10.10;;;6.40;;
20527;SDS011;23612;50.894;10.700;2023-02-28T06:43:24;13.03;;;6.73;;
20527;SDS011;23612;50.894;10.700;2023-02-28T06:45:53;17.20;;;6.80;;
20527;SDS011;23612;50.894;10.700;2023-02-28T06:48:19;11.50;;;6.67;;
20527;SDS011;23612;50.894;10.700;2023-02-28T06:50:45;13.80;;;7.13;;
20527;SDS011;23612;50.894;10.700;2023-02-28T06:53:11;12.47;;;6.40;;
20527;SDS011;23612;50.894;10.700;2023-02-28T06:55:38;11.00;;;6.30;;
20527;SDS011;23612;50.894;10.700;2023-02-28T06:58:04;12.10;;;6.63;;
20527;SDS011;23612;50.894;10.700;2023-02-28T07:00:40;10.83;;;6.40;;
20527;SDS011;23612;50.894;10.700;2023-02-28T07:03:07;12.93;;;6.77;;
20527;SDS011;23612;50.894;10.700;2023-02-28T07:05:34;13.60;;;6.97;;
20527;SDS011;23612;50.894;10.700;2023-02-28T07:08:00;13.70;;;7.30;;
20527;SDS011;23612;50.894;10.700;2023-02-28T07:10:26;15.47;;;7.20;;
20527;SDS011;23612;50.894;10.700;2023-02-28T07:12:52;11.97;;;6.30;;
20527;SDS011;23612;50.894;10.700;2023-02-28T07:15:18;9.27;;;6.17;;
20527;SDS011;23612;50.894;10.700;2023-02-28T07:17:44;9.33;;;6.03;;
20527;SDS011;23612;50.894;10.700;2023-02-28T07:20:10;9.93;;;6.35;;
20527;SDS011;23612;50.894;10.700;2023-02-28T07:22:36;10.75;;;7.30;;
20527;SDS011;23612;50.894;10.700;2023-02-28T07:25:03;8.13;;;5.65;;
20527;SDS011;23612;50.894;10.700;2023-02-28T07:27:29;7.45;;;5.60;;
20527;SDS011;23612;50.894;10.700;2023-02-28T07:29:55;8.43;;;5.43;;
20527;SDS011;23612;50.894;10.700;2023-02-28T07:32:21;11.43;;;5.80;;
20527;SDS011;23612;50.894;10.700;2023-02-28T07:34:47;7.55;;;5.30;;
20527;SDS011;23612;50.894;10.700;2023-02-28T07:37:14;7.65;;;5.80;;
20527;SDS011;23612;50.894;10.700;2023-02-28T07:39:40;12.38;;;5.95;;
20527;SDS011;23612;50.894;10.700;2023-02-28T07:42:09;7.20;;;4.90;;
20527;SDS011;23612;50.894;10.700;2023-02-28T07:44:37;8.93;;;6.25;;
20527;SDS011;23612;50.894;10.700;2023-02-28T07:47:06;10.80;;;5.85;;
20527;SDS011;23612;50.894;10.700;2023-02-28T07:49:32;10.68;;;6.43;;
20527;SDS011;23612;50.894;10.700;2023-02-28T07:51:58;9.65;;;5.72;;
20527;SDS011;23612;50.894;10.700;2023-02-28T07:54:23;10.63;;;6.13;;
20527;SDS011;23612;50.894;10.700;2023-02-28T07:56:49;9.43;;;5.80;;
20527;SDS011;23612;50.894;10.700;2023-02-28T07:59:15;8.38;;;6.00;;
20527;SDS011;23612;50.894;10.700;2023-02-28T08:01:41;8.75;;;5.55;;
20527;SDS011;23612;50.894;10.700;2023-02-28T08:04:09;10.23;;;5.63;;
20527;SDS011;23612;50.894;10.700;2023-02-28T08:06:35;9.93;;;5.90;;
20527;SDS011;23612;50.894;10.700;2023-02-28T08:09:01;10.73;;;5.70;;
20527;SDS011;23612;50.894;10.700;2023-02-28T08:11:27;9.57;;;5.45;;
20527;SDS011;23612;50.894;10.700;2023-02-28T08:13:54;9.13;;;5.30;;
20527;SDS011;23612;50.894;10.700;2023-02-28T08:16:20;8.27;;;5.32;;
20527;SDS011;23612;50.894;10.700;2023-02-28T08:18:47;9.48;;;5.57;;
20527;SDS011;23612;50.894;10.700;2023-02-28T08:21:14;8.77;;;5.55;;
20527;SDS011;23612;50.894;10.700;2023-02-28T08:23:40;8.95;;;5.55;;
20527;SDS011;23612;50.894;10.700;2023-02-28T08:26:06;9.20;;;5.60;;
20527;SDS011;23612;50.894;10.700;2023-02-28T08:28:32;6.22;;;5.13;;
20527;SDS011;23612;50.894;10.700;2023-02-28T08:30:58;7.68;;;5.80;;
20527;SDS011;23612;50.894;10.700;2023-02-28T08:33:24;6.70;;;5.07;;
20527;SDS011;23612;50.894;10.700;2023-02-28T08:35:54;8.50;;;5.65;;
20527;SDS011;23612;50.894;10.700;2023-02-28T08:38:20;8.32;;;5.63;;
20527;SDS011;23612;50.894;10.700;2023-02-28T08:40:46;7.15;;;5.20;;
20527;SDS011;23612;50.894;10.700;2023-02-28T08:43:12;9.10;;;5.55;;
20527;SDS011;23612;50.894;10.700;2023-02-28T08:45:38;7.50;;;5.13;;
20527;SDS011;23612;50.894;10.700;2023-02-28T08:48:05;6.97;;;5.13;;
20527;SDS011;23612;50.894;10.700;2023-02-28T08:50:31;10.88;;;5.70;;
20527;SDS011;23612;50.894;10.700;2023-02-28T08:52:57;8.45;;;5.10;;
20527;SDS011;23612;50.894;10.700;2023-02-28T08:55:23;7.93;;;5.35;;
20527;SDS011;23612;50.894;10.700;2023-02-28T08:57:49;6.28;;;5.13;;
20527;SDS011;23612;50.894;10.700;2023-02-28T09:00:15;9.32;;;5.50;;
20527;SDS011;23612;50.894;10.700;2023-02-28T09:02:41;9.55;;;5.55;;
20527;SDS011;23612;50.894;10.700;2023-02-28T09:05:08;8.63;;;5.70;;
20527;SDS011;23612;50.894;10.700;2023-02-28T09:07:34;11.23;;;6.65;;
20527;SDS011;23612;50.894;10.700;2023-02-28T09:10:00;10.13;;;5.85;;
20527;SDS011;23612;50.894;10.700;2023-02-28T09:12:27;10.80;;;6.07;;
20527;SDS011;23612;50.894;10.700;2023-02-28T09:14:53;10.18;;;5.65;;
20527;SDS011;23612;50.894;10.700;2023-02-28T09:17:19;7.60;;;5.95;;
20527;SDS011;23612;50.894;10.700;2023-02-28T09:19:47;9.98;;;5.72;;
20527;SDS011;23612;50.894;10.700;2023-02-28T09:22:13;8.95;;;5.95;;
20527;SDS011;23612;50.894;10.700;2023-02-28T09:24:38;14.05;;;5.97;;
20527;SDS011;23612;50.894;10.700;2023-02-28T09:27:04;7.50;;;5.68;;
20527;SDS011;23612;50.894;10.700;2023-02-28T09:29:31;8.73;;;5.97;;
20527;SDS011;23612;50.894;10.700;2023-02-28T09:31:57;11.23;;;6.72;;
20527;SDS011;23612;50.894;10.700;2023-02-28T09:34:24;9.55;;;6.28;;
20527;SDS011;23612;50.894;10.700;2023-02-28T09:36:50;8.68;;;5.70;;
20527;SDS011;23612;50.894;10.700;2023-02-28T09:39:19;12.68;;;6.28;;
20527;SDS011;23612;50.894;10.700;2023-02-28T09:41:47;9.30;;;5.90;;
20527;SDS011;23612;50.894;10.700;2023-02-28T09:44:35;8.32;;;5.47;;
20527;SDS011;23612;50.894;10.700;2023-02-28T09:47:07;17.00;;;6.28;;
20527;SDS011;23612;50.894;10.700;2023-02-28T09:49:40;7.07;;;5.75;;
20527;SDS011;23612;50.894;10.700;2023-02-28T09:52:13;10.93;;;5.28;;
20527;SDS011;23612;50.894;10.700;2023-02-28T09:54:39;8.50;;;5.63;;
20527;SDS011;23612;50.894;10.700;2023-02-28T09:57:29;8.88;;;5.75;;
20527;SDS011;23612;50.894;10.700;2023-02-28T10:05:14;8.93;;;5.97;;
20527;SDS011;23612;50.894;10.700;2023-02-28T10:10:28;9.93;;;5.72;;
20527;SDS011;23612;50.894;10.700;2023-02-28T10:12:56;8.73;;;5.65;;
20527;SDS011;23612;50.894;10.700;2023-02-28T10:15:23;7.78;;;5.18;;
20527;SDS011;23612;50.894;10.700;2023-02-28T10:17:53;9.25;;;5.20;;
20527;SDS011;23612;50.894;10.700;2023-02-28T10:20:20;10.00;;;5.40;;
20527;SDS011;23612;50.894;10.700;2023-02-28T10:25:22;8.95;;;5.55;;
20527;SDS011;23612;50.894;10.700;2023-02-28T10:27:49;8.55;;;5.35;;
20527;SDS011;23612;50.894;10.700;2023-02-28T10:30:15;8.18;;;5.68;;
20527;SDS011;23612;50.894;10.700;2023-02-28T10:32:43;9.50;;;6.13;;
20527;SDS011;23612;50.894;10.700;2023-02-28T10:35:19;10.05;;;5.90;;
20527;SDS011;23612;50.894;10.700;2023-02-28T10:37:58;8.45;;;5.50;;
20527;SDS011;23612;50.894;10.700;2023-02-28T10:45:25;9.82;;;5.55;;
20527;SDS011;23612;50.894;10.700;2023-02-28T10:47:59;10.48;;;5.45;;
20527;SDS011;23612;50.894;10.700;2023-02-28T10:50:43;10.15;;;6.28;;
20527;SDS011;23612;50.894;10.700;2023-02-28T10:55:36;6.10;;;4.82;;
20527;SDS011;23612;50.894;10.700;2023-02-28T10:58:02;7.60;;;5.07;;
20527;SDS011;23612;50.894;10.700;2023-02-28T11:00:34;8.88;;;5.47;;
20527;SDS011;23612;50.894;10.700;2023-02-28T11:03:00;7.65;;;5.28;;
20527;SDS011;23612;50.894;10.700;2023-02-28T11:05:28;10.70;;;5.25;;
20527;SDS011;23612;50.894;10.700;2023-02-28T11:07:56;7.38;;;4.93;;
20527;SDS011;23612;50.894;10.700;2023-02-28T11:10:24;9.75;;;5.78;;
20527;SDS011;23612;50.894;10.700;2023-02-28T11:12:54;11.93;;;5.05;;
20527;SDS011;23612;50.894;10.700;2023-02-28T11:17:53;7.10;;;4.68;;
20527;SDS011;23612;50.894;10.700;2023-02-28T11:20:22;7.90;;;5.50;;
20527;SDS011;23612;50.894;10.700;2023-02-28T11:22:49;8.98;;;4.97;;
20527;SDS011;23612;50.894;10.700;2023-02-28T11:25:19;16.35;;;4.78;;
20527;SDS011;23612;50.894;10.700;2023-02-28T11:27:49;6.50;;;5.10;;
20527;SDS011;23612;50.894;10.700;2023-02-28T11:30:26;7.65;;;5.13;;
20527;SDS011;23612;50.894;10.700;2023-02-28T11:32:52;6.05;;;4.70;;
20527;SDS011;23612;50.894;10.700;2023-02-28T11:35:21;7.57;;;4.43;;
20527;SDS011;23612;50.894;10.700;2023-02-28T11:37:48;10.02;;;4.90;;
20527;SDS011;23612;50.894;10.700;2023-02-28T11:40:15;8.48;;;4.95;;
20527;SDS011;23612;50.894;10.700;2023-02-28T11:42:45;7.72;;;6.45;;
20527;SDS011;23612;50.894;10.700;2023-02-28T11:48:04;8.75;;;5.90;;
20527;SDS011;23612;50.894;10.700;2023-02-28T11:50:39;15.93;;;8.20;;
20527;SDS011;23612;50.894;10.700;2023-02-28T11:53:14;9.25;;;6.20;;
20527;SDS011;23612;50.894;10.700;2023-02-28T11:55:44;9.60;;;6.80;;
20527;SDS011;23612;50.894;10.700;2023-02-28T12:00:39;14.82;;;8.50;;
20527;SDS011;23612;50.894;10.700;2023-02-28T12:03:13;9.77;;;6.88;;
20527;SDS011;23612;50.894;10.700;2023-02-28T12:05:44;14.55;;;7.00;;
20527;SDS011;23612;50.894;10.700;2023-02-28T12:13:20;9.98;;;6.30;;
20527;SDS011;23612;50.894;10.700;2023-02-28T12:16:12;8.23;;;6.00;;
20527;SDS011;23612;50.894;10.700;2023-02-28T12:19:05;13.02;;;6.75;;
20527;SDS011;23612;50.894;10.700;2023-02-28T12:24:24;8.35;;;6.63;;
20527;SDS011;23612;50.894;10.700;2023-02-28T12:26:53;9.18;;;7.30;;
20527;SDS011;23612;50.894;10.700;2023-02-28T12:29:21;10.73;;;6.07;;
20527;SDS011;23612;50.894;10.700;2023-02-28T12:31:49;13.38;;;6.43;;
20527;SDS011;23612;50.894;10.700;2023-02-28T12:34:19;12.63;;;6.32;;
20527;SDS011;23612;50.894;10.700;2023-02-28T12:36:46;8.10;;;6.07;;
20527;SDS011;23612;50.894;10.700;2023-02-28T12:39:15;8.10;;;5.65;;
20527;SDS011;23612;50.894;10.700;2023-02-28T12:41:45;7.32;;;5.93;;
20527;SDS011;23612;50.894;10.700;2023-02-28T12:44:12;9.05;;;6.05;;
20527;SDS011;23612;50.894;10.700;2023-02-28T12:46:42;8.60;;;6.22;;
20527;SDS011;23612;50.894;10.700;2023-02-28T12:49:13;7.40;;;5.72;;
20527;SDS011;23612;50.894;10.700;2023-02-28T12:51:41;9.43;;;6.55;;
20527;SDS011;23612;50.894;10.700;2023-02-28T12:54:21;9.43;;;6.55;;
20527;SDS011;23612;50.894;10.700;2023-02-28T12:57:02;9.68;;;6.30;;
20527;SDS011;23612;50.894;10.700;2023-02-28T13:07:45;9.52;;;6.40;;
20527;SDS011;23612;50.894;10.700;2023-02-28T13:10:15;8.55;;;6.32;;
20527;SDS011;23612;50.894;10.700;2023-02-28T13:12:51;9.27;;;6.93;;
20527;SDS011;23612;50.894;10.700;2023-02-28T13:15:19;7.25;;;6.30;;
20527;SDS011;23612;50.894;10.700;2023-02-28T13:17:50;11.52;;;7.25;;
20527;SDS011;23612;50.894;10.700;2023-02-28T13:20:18;8.57;;;6.80;;
20527;SDS011;23612;50.894;10.700;2023-02-28T13:22:45;9.10;;;6.78;;
20527;SDS011;23612;50.894;10.700;2023-02-28T13:27:56;9.32;;;7.05;;
20527;SDS011;23612;50.894;10.700;2023-02-28T13:33:23;10.60;;;7.43;;
20527;SDS011;23612;50.894;10.700;2023-02-28T13:36:00;10.98;;;6.93;;
20527;SDS011;23612;50.894;10.700;2023-02-28T13:38:33;11.00;;;7.43;;
20527;SDS011;23612;50.894;10.700;2023-02-28T13:46:29;9.57;;;7.22;;
20527;SDS011;23612;50.894;10.700;2023-02-28T13:48:55;8.90;;;7.32;;
20527;SDS011;23612;50.894;10.700;2023-02-28T13:51:40;10.57;;;7.82;;
20527;SDS011;23612;50.894;10.700;2023-02-28T13:54:15;9.85;;;7.50;;
20527;SDS011;23612;50.894;10.700;2023-02-28T13:56:45;9.80;;;7.28;;
20527;SDS011;23612;50.894;10.700;2023-02-28T13:59:26;11.32;;;7.95;;
20527;SDS011;23612;50.894;10.700;2023-02-28T14:02:01;12.02;;;7.80;;
20527;SDS011;23612;50.894;10.700;2023-02-28T14:04:34;12.05;;;7.65;;
20527;SDS011;23612;50.894;10.700;2023-02-28T14:07:05;11.80;;;7.85;;
20527;SDS011;23612;50.894;10.700;2023-02-28T14:09:32;10.07;;;7.20;;
20527;SDS011;23612;50.894;10.700;2023-02-28T14:17:14;10.50;;;7.47;;
20527;SDS011;23612;50.894;10.700;2023-02-28T14:19:40;9.25;;;7.35;;
20527;SDS011;23612;50.894;10.700;2023-02-28T14:32:27;18.35;;;9.07;;
20527;SDS011;23612;50.894;10.700;2023-02-28T14:34:58;14.30;;;8.40;;
20527;SDS011;23612;50.894;10.700;2023-02-28T14:37:28;14.57;;;9.05;;
20527;SDS011;23612;50.894;10.700;2023-02-28T14:39:55;15.38;;;9.52;;
20527;SDS011;23612;50.894;10.700;2023-02-28T14:42:30;16.90;;;9.90;;
20527;SDS011;23612;50.894;10.700;2023-02-28T14:44:56;13.45;;;9.82;;
20527;SDS011;23612;50.894;10.700;2023-02-28T14:47:23;18.15;;;10.05;;
20527;SDS011;23612;50.894;10.700;2023-02-28T14:49:51;19.10;;;10.57;;
20527;SDS011;23612;50.894;10.700;2023-02-28T14:52:23;15.88;;;10.10;;
20527;SDS011;23612;50.894;10.700;2023-02-28T14:54:52;15.55;;;9.77;;
20527;SDS011;23612;50.894;10.700;2023-02-28T14:57:23;16.42;;;10.68;;
20527;SDS011;23612;50.894;10.700;2023-02-28T14:59:56;15.40;;;10.13;;
20527;SDS011;23612;50.894;10.700;2023-02-28T15:02:23;18.63;;;10.88;;
20527;SDS011;23612;50.894;10.700;2023-02-28T15:04:57;15.43;;;10.43;;
20527;SDS011;23612;50.894;10.700;2023-02-28T15:07:23;17.40;;;11.07;;
20527;SDS011;23612;50.894;10.700;2023-02-28T15:10:15;21.20;;;11.60;;
20527;SDS011;23612;50.894;10.700;2023-02-28T15:12:41;17.53;;;11.67;;
20527;SDS011;23612;50.894;10.700;2023-02-28T15:15:17;18.13;;;11.00;;
20527;SDS011;23612;50.894;10.700;2023-02-28T15:17:45;18.03;;;11.13;;
20527;SDS011;23612;50.894;10.700;2023-02-28T15:20:12;20.77;;;11.77;;
20527;SDS011;23612;50.894;10.700;2023-02-28T15:22:39;17.17;;;10.90;;
20527;SDS011;23612;50.894;10.700;2023-02-28T15:25:05;19.10;;;11.40;;
20527;SDS011;23612;50.894;10.700;2023-02-28T15:27:33;18.10;;;10.93;;
20527;SDS011;23612;50.894;10.700;2023-02-28T15:30:00;20.50;;;11.60;;
20527;SDS011;23612;50.894;10.700;2023-02-28T15:32:31;19.27;;;11.73;;
20527;SDS011;23612;50.894;10.700;2023-02-28T15:34:58;32.60;;;12.60;;
20527;SDS011;23612;50.894;10.700;2023-02-28T15:42:31;20.90;;;11.50;;
20527;SDS011;23612;50.894;10.700;2023-02-28T15:44:57;22.30;;;12.47;;
20527;SDS011;23612;50.894;10.700;2023-02-28T15:47:25;20.50;;;11.63;;
20527;SDS011;23612;50.894;10.700;2023-02-28T15:49:53;18.43;;;11.90;;
20527;SDS011;23612;50.894;10.700;2023-02-28T15:52:39;19.57;;;11.27;;
20527;SDS011;23612;50.894;10.700;2023-02-28T15:55:10;21.77;;;11.97;;
20527;SDS011;23612;50.894;10.700;2023-02-28T15:57:38;19.63;;;11.60;;
20527;SDS011;23612;50.894;10.700;2023-02-28T16:00:04;21.43;;;11.43;;
20527;SDS011;23612;50.894;10.700;2023-02-28T16:02:36;31.03;;;16.87;;
20527;SDS011;23612;50.894;10.700;2023-02-28T16:07:32;20.97;;;11.70;;
20527;SDS011;23612;50.894;10.700;2023-02-28T16:09:58;18.00;;;11.40;;
20527;SDS011;23612;50.894;10.700;2023-02-28T16:12:29;24.13;;;11.93;;
20527;SDS011;23612;50.894;10.700;2023-02-28T16:14:56;23.10;;;11.97;;